Time;durP1;ratioP1;P1;durP2;ratioP2;P2;SDS_P1;SDS_P2;PMS_P1;PMS_P2;Temp;Humidity;BMP_temperature;BMP_pressure;BME280_temperature;BME280_humidity;BME280_pressure;Samples;Min_cycle;Max_cycle;Signal;HPM_P1;HPM_P2
2022/04/24 00:00:31;;;;;;;9.45;8.13;;;9.70;99.90;;;;;;4782756;29;20104;-63
2022/04/24 00:02:56;;;;;;;8.48;7.68;;;9.70;99.90;;;;;;4769525;30;20063;-64
2022/04/24 00:05:22;;;;;;;9.23;7.60;;;9.60;99.90;;;;;;4785672;30;20060;-64
2022/04/24 00:07:47;;;;;;;11.32;8.10;;;9.60;99.90;;;;;;4785624;29;20161;-63
2022/04/24 00:10:13;;;;;;;8.70;7.80;;;9.50;99.90;;;;;;4774065;30;20457;-64
2022/04/24 00:12:39;;;;;;;9.30;8.18;;;9.50;99.90;;;;;;4788704;30;20108;-64
2022/04/24 00:15:05;;;;;;;9.00;7.07;;;9.50;99.90;;;;;;4786774;29;20528;-64
2022/04/24 00:17:31;;;;;;;9.05;7.90;;;9.50;99.90;;;;;;4789960;30;20069;-63
2022/04/24 00:19:56;;;;;;;8.63;7.72;;;9.40;99.90;;;;;;4789832;30;20059;-64
2022/04/24 00:22:22;;;;;;;8.73;7.32;;;9.40;99.90;;;;;;4772276;30;20485;-63
2022/04/24 00:24:47;;;;;;;10.43;8.40;;;9.40;99.90;;;;;;4789357;30;20051;-65
2022/04/24 00:27:13;;;;;;;8.82;7.80;;;9.40;99.90;;;;;;4769681;29;20132;-64
2022/04/24 00:29:39;;;;;;;8.77;7.78;;;9.30;99.90;;;;;;4784624;29;20063;-63
2022/04/24 00:32:05;;;;;;;9.07;8.00;;;9.30;99.90;;;;;;4771179;30;20051;-64
2022/04/24 00:34:31;;;;;;;8.38;7.57;;;9.30;99.90;;;;;;4769813;30;20485;-64
2022/04/24 00:36:57;;;;;;;8.70;7.53;;;9.20;99.90;;;;;;4785171;29;20059;-64
2022/04/24 00:39:22;;;;;;;8.35;7.38;;;9.20;99.90;;;;;;4788148;29;20138;-64
2022/04/24 00:41:50;;;;;;;9.20;8.13;;;9.20;99.90;;;;;;4772968;30;20051;-65
2022/04/24 00:44:17;;;;;;;8.80;7.90;;;9.10;99.90;;;;;;4773045;30;20102;-64
2022/04/24 00:46:57;;;;;;;11.82;7.78;;;9.10;99.90;;;;;;4786794;29;20059;-64
2022/04/24 00:49:23;;;;;;;9.90;7.95;;;9.20;99.90;;;;;;4773843;30;20069;-64
2022/04/24 00:51:49;;;;;;;8.75;7.43;;;9.10;99.90;;;;;;4770934;30;20055;-64
2022/04/24 00:54:16;;;;;;;9.63;8.07;;;9.10;99.90;;;;;;4774119;30;20074;-63
2022/04/24 00:56:43;;;;;;;9.65;7.78;;;9.10;99.90;;;;;;4784867;29;20532;-64
2022/04/24 00:59:11;;;;;;;11.85;8.18;;;9.10;99.90;;;;;;4771753;30;20058;-64
2022/04/24 01:01:37;;;;;;;8.02;7.25;;;9.10;99.90;;;;;;4780683;29;20472;-64
2022/04/24 01:04:07;;;;;;;8.70;7.72;;;9.00;99.90;;;;;;4785345;29;20044;-63
2022/04/24 01:06:36;;;;;;;9.57;8.20;;;9.00;99.90;;;;;;4785623;29;20055;-63
2022/04/24 01:09:31;;;;;;;8.43;7.63;;;8.90;99.90;;;;;;4784990;29;20079;-64
2022/04/24 01:11:56;;;;;;;11.07;8.13;;;8.90;99.90;;;;;;4784953;29;20508;-63
2022/04/24 01:14:27;;;;;;;9.50;8.00;;;8.90;99.90;;;;;;4786079;29;20094;-63
2022/04/24 01:16:54;;;;;;;9.23;8.23;;;8.90;99.90;;;;;;4783599;29;20062;-64
2022/04/24 01:19:20;;;;;;;9.68;7.72;;;8.80;99.90;;;;;;4769956;30;20052;-65
2022/04/24 01:21:48;;;;;;;8.82;7.93;;;8.80;99.90;;;;;;4787142;29;20108;-63
2022/04/24 01:24:15;;;;;;;8.73;7.93;;;8.80;99.90;;;;;;4770466;30;20055;-64
2022/04/24 01:26:41;;;;;;;10.80;7.60;;;8.80;99.90;;;;;;4786021;29;20051;-64
2022/04/24 01:29:07;;;;;;;9.18;7.75;;;8.80;99.90;;;;;;4767440;30;20555;-64
2022/04/24 01:31:33;;;;;;;8.57;7.72;;;8.80;99.90;;;;;;4769541;30;20059;-64
2022/04/24 01:33:59;;;;;;;8.73;7.82;;;8.80;99.90;;;;;;4784446;29;20385;-64
2022/04/24 01:36:25;;;;;;;8.85;7.95;;;8.70;99.90;;;;;;4770479;30;20126;-65
2022/04/24 01:38:51;;;;;;;11.07;8.63;;;8.70;99.90;;;;;;4769472;30;20055;-64
2022/04/24 01:41:17;;;;;;;8.55;7.57;;;8.60;99.90;;;;;;4782591;29;21643;-64
2022/04/24 01:43:42;;;;;;;8.45;7.43;;;8.60;99.90;;;;;;4768267;29;20047;-64
2022/04/24 01:46:09;;;;;;;8.90;7.82;;;8.50;99.90;;;;;;4784629;29;20047;-64
2022/04/24 01:48:35;;;;;;;10.00;7.80;;;8.50;99.90;;;;;;4787199;30;20067;-64
2022/04/24 01:51:05;;;;;;;8.45;7.60;;;8.40;99.90;;;;;;4785827;29;20079;-65
2022/04/24 01:53:32;;;;;;;9.07;7.68;;;8.40;99.90;;;;;;4785173;29;20082;-64
2022/04/24 01:56:02;;;;;;;8.80;7.80;;;8.40;99.90;;;;;;4785421;29;20055;-65
2022/04/24 01:58:28;;;;;;;11.75;8.73;;;8.30;99.90;;;;;;4784132;29;20071;-65
2022/04/24 02:00:54;;;;;;;10.48;8.57;;;8.30;99.90;;;;;;4785902;29;20254;-65
2022/04/24 02:03:22;;;;;;;9.30;7.82;;;8.20;99.90;;;;;;4769562;30;20105;-65
2022/04/24 02:05:48;;;;;;;8.60;7.80;;;8.20;99.90;;;;;;4784925;30;20086;-65
2022/04/24 02:08:13;;;;;;;9.65;8.23;;;8.20;99.90;;;;;;4769510;30;20089;-64
2022/04/24 02:10:39;;;;;;;9.25;7.93;;;8.20;99.90;;;;;;4766201;30;20102;-64
2022/04/24 02:13:05;;;;;;;10.23;7.70;;;8.10;99.90;;;;;;4766494;30;20055;-64
2022/04/24 02:15:31;;;;;;;9.10;7.93;;;8.10;99.90;;;;;;4780783;30;20053;-65
2022/04/24 02:17:56;;;;;;;9.68;7.78;;;8.10;99.90;;;;;;4768644;30;20054;-64
2022/04/24 02:20:22;;;;;;;11.18;8.52;;;8.10;99.90;;;;;;4765321;30;20482;-64
2022/04/24 02:22:49;;;;;;;9.90;8.60;;;8.00;99.90;;;;;;4765904;30;20087;-64
2022/04/24 02:25:15;;;;;;;10.82;8.00;;;8.00;99.90;;;;;;4767115;30;20055;-64
2022/04/24 02:27:41;;;;;;;9.63;7.68;;;8.00;99.90;;;;;;4768287;30;20134;-65
2022/04/24 02:30:07;;;;;;;10.30;8.10;;;8.00;99.90;;;;;;4767277;30;20155;-65
2022/04/24 02:32:32;;;;;;;9.38;8.18;;;8.00;99.90;;;;;;4780713;30;20952;-65
2022/04/24 02:34:58;;;;;;;8.85;7.72;;;7.90;99.90;;;;;;4767883;30;20076;-64
2022/04/24 02:37:25;;;;;;;9.57;8.57;;;7.90;99.90;;;;;;4763171;30;20467;-64
2022/04/24 02:39:51;;;;;;;9.48;8.25;;;7.90;99.90;;;;;;4768499;30;20075;-65
2022/04/24 02:42:17;;;;;;;10.98;8.25;;;7.80;99.90;;;;;;4766140;30;20478;-65
2022/04/24 02:44:43;;;;;;;10.15;8.23;;;7.80;99.90;;;;;;4766939;30;20067;-65
2022/04/24 02:47:08;;;;;;;9.15;8.25;;;7.70;99.90;;;;;;4766513;30;20064;-65
2022/04/24 02:49:34;;;;;;;10.68;8.32;;;7.70;99.90;;;;;;4767157;30;20417;-64
2022/04/24 02:51:59;;;;;;;10.50;8.30;;;7.70;99.90;;;;;;4767628;30;20108;-65
2022/04/24 02:54:25;;;;;;;10.85;9.02;;;7.60;99.90;;;;;;4765908;30;20059;-65
2022/04/24 02:56:51;;;;;;;9.10;8.20;;;7.70;99.90;;;;;;4765175;30;20525;-64
2022/04/24 02:59:16;;;;;;;9.20;8.00;;;7.60;99.90;;;;;;4781104;29;20051;-64
2022/04/24 03:01:42;;;;;;;9.32;8.43;;;7.50;99.90;;;;;;4765573;30;20487;-65
2022/04/24 03:04:08;;;;;;;9.25;8.27;;;7.50;99.90;;;;;;4781226;29;20055;-64
2022/04/24 03:06:34;;;;;;;9.35;8.40;;;7.50;99.90;;;;;;4764295;30;20527;-64
2022/04/24 03:08:59;;;;;;;10.00;8.75;;;7.50;99.90;;;;;;4767997;30;20177;-65
2022/04/24 03:11:25;;;;;;;9.05;8.15;;;7.40;99.90;;;;;;4778864;30;20136;-65
2022/04/24 03:13:51;;;;;;;11.55;8.52;;;7.40;99.90;;;;;;4767367;30;20070;-65
2022/04/24 03:16:17;;;;;;;9.80;8.85;;;7.40;99.90;;;;;;4764384;30;20052;-65
2022/04/24 03:18:42;;;;;;;10.48;7.82;;;7.40;99.90;;;;;;4766989;30;20070;-63
2022/04/24 03:21:08;;;;;;;9.00;8.10;;;7.30;99.90;;;;;;4767401;30;20059;-64
2022/04/24 03:23:33;;;;;;;9.07;8.18;;;7.30;99.90;;;;;;4777404;30;20063;-63
2022/04/24 03:25:59;;;;;;;9.65;8.57;;;7.30;99.90;;;;;;4781769;30;20131;-64
2022/04/24 03:28:24;;;;;;;9.95;8.60;;;7.30;99.90;;;;;;4765320;30;20513;-64
2022/04/24 03:30:50;;;;;;;10.73;8.52;;;7.20;99.90;;;;;;4765984;30;20397;-64
2022/04/24 03:33:16;;;;;;;9.55;7.90;;;7.20;99.90;;;;;;4767887;30;20064;-64
2022/04/24 03:35:42;;;;;;;9.73;8.07;;;7.20;99.90;;;;;;4766589;30;20071;-65
2022/04/24 03:38:07;;;;;;;9.32;8.30;;;7.20;99.90;;;;;;4763957;30;20055;-64
2022/04/24 03:40:33;;;;;;;9.93;8.93;;;7.10;99.90;;;;;;4780231;29;20066;-65
2022/04/24 03:42:59;;;;;;;9.57;8.57;;;7.10;99.90;;;;;;4766656;30;20052;-64
2022/04/24 03:45:24;;;;;;;9.88;8.50;;;7.10;99.90;;;;;;4769579;30;20462;-64
2022/04/24 03:47:51;;;;;;;9.77;8.77;;;7.00;99.90;;;;;;4783860;30;20135;-65
2022/04/24 03:50:20;;;;;;;8.75;7.85;;;7.10;99.90;;;;;;4783384;29;20462;-65
2022/04/24 03:52:46;;;;;;;10.40;7.93;;;7.00;99.90;;;;;;4768314;30;20067;-64
2022/04/24 03:55:12;;;;;;;10.77;8.38;;;7.00;99.90;;;;;;4783986;30;20056;-65
2022/04/24 03:57:38;;;;;;;9.23;8.30;;;7.00;99.90;;;;;;4767244;30;20061;-64
2022/04/24 04:00:05;;;;;;;12.40;9.40;;;7.00;99.90;;;;;;4767701;30;20059;-65
2022/04/24 04:02:31;;;;;;;9.13;8.13;;;7.00;99.90;;;;;;4768691;30;20255;-64
2022/04/24 04:04:57;;;;;;;11.50;8.55;;;7.00;99.90;;;;;;4769782;30;20060;-65
2022/04/24 04:07:22;;;;;;;10.65;8.80;;;7.00;99.90;;;;;;4766455;30;20060;-64
2022/04/24 04:09:48;;;;;;;11.23;9.13;;;6.90;99.90;;;;;;4771965;29;20074;-64
2022/04/24 04:12:14;;;;;;;9.88;8.88;;;6.90;99.90;;;;;;4786517;29;20047;-65
2022/04/24 04:14:39;;;;;;;11.80;8.82;;;6.90;99.90;;;;;;4772306;30;20070;-65
2022/04/24 04:17:05;;;;;;;9.57;8.02;;;6.90;99.90;;;;;;4786650;29;20066;-65
2022/04/24 04:19:31;;;;;;;10.02;8.25;;;6.80;99.90;;;;;;4788121;29;20059;-65
2022/04/24 04:21:56;;;;;;;12.00;9.10;;;6.90;99.90;;;;;;4770839;30;20143;-64
2022/04/24 04:24:22;;;;;;;12.20;8.68;;;6.80;99.90;;;;;;4767697;30;20063;-65
2022/04/24 04:26:47;;;;;;;8.85;7.95;;;6.90;99.90;;;;;;4787542;29;20076;-64
2022/04/24 04:29:13;;;;;;;11.82;8.52;;;6.90;99.90;;;;;;4785967;29;20068;-64
2022/04/24 04:31:39;;;;;;;10.57;8.20;;;6.80;99.90;;;;;;4786553;29;20070;-64
2022/04/24 04:34:04;;;;;;;11.13;8.10;;;6.80;99.90;;;;;;4770898;30;20059;-65
2022/04/24 04:36:30;;;;;;;10.13;8.05;;;6.80;99.90;;;;;;4785182;30;20112;-64
2022/04/24 04:38:55;;;;;;;9.82;8.32;;;6.80;99.90;;;;;;4783883;29;20359;-64
2022/04/24 04:41:21;;;;;;;10.55;8.20;;;6.80;99.90;;;;;;4784215;29;20055;-65
2022/04/24 04:43:47;;;;;;;9.98;7.97;;;6.80;99.90;;;;;;4787790;30;20052;-64
2022/04/24 04:46:12;;;;;;;9.75;8.40;;;6.80;99.90;;;;;;4769433;30;20093;-65
2022/04/24 04:48:38;;;;;;;10.68;8.10;;;6.80;99.90;;;;;;4778974;29;20070;-64
2022/04/24 04:51:03;;;;;;;9.02;8.13;;;6.80;99.90;;;;;;4769254;30;20146;-65
2022/04/24 04:53:29;;;;;;;10.63;8.50;;;6.80;99.90;;;;;;4784629;29;20201;-65
2022/04/24 04:55:55;;;;;;;9.80;8.30;;;6.90;99.90;;;;;;4769852;30;20082;-64
2022/04/24 04:58:20;;;;;;;9.52;8.05;;;6.90;99.90;;;;;;4787345;30;20062;-64
2022/04/24 05:00:46;;;;;;;8.73;7.80;;;7.00;99.90;;;;;;4770473;30;20112;-65
2022/04/24 05:03:12;;;;;;;10.02;7.95;;;7.00;99.90;;;;;;4785227;29;20055;-64
2022/04/24 05:05:37;;;;;;;9.25;8.27;;;7.00;99.90;;;;;;4787132;29;20055;-65
2022/04/24 05:08:03;;;;;;;10.82;8.15;;;7.00;99.90;;;;;;4786610;29;20059;-64
2022/04/24 05:10:29;;;;;;;11.50;8.65;;;7.10;99.90;;;;;;4783410;30;20108;-64
2022/04/24 05:12:54;;;;;;;8.98;7.97;;;7.10;99.90;;;;;;4770857;30;20108;-65
2022/04/24 05:15:21;;;;;;;11.68;8.80;;;7.20;99.90;;;;;;4769419;30;20103;-64
2022/04/24 05:17:47;;;;;;;11.20;8.35;;;7.20;99.90;;;;;;4784240;29;20527;-64
2022/04/24 05:20:12;;;;;;;11.63;8.30;;;7.30;99.90;;;;;;4786098;29;20059;-64
2022/04/24 05:22:39;;;;;;;10.20;7.68;;;7.30;99.90;;;;;;4784710;29;20055;-64
2022/04/24 05:25:09;;;;;;;9.70;7.43;;;7.40;99.90;;;;;;4787507;29;20058;-64
2022/04/24 05:27:36;;;;;;;8.77;7.28;;;7.40;99.90;;;;;;4769842;30;20071;-65
2022/04/24 05:30:07;;;;;;;9.15;7.28;;;7.50;99.90;;;;;;4787078;29;20482;-65
2022/04/24 05:32:47;;;;;;;8.88;7.75;;;7.50;99.90;;;;;;4782521;29;20055;-65
2022/04/24 05:35:13;;;;;;;9.57;8.20;;;7.60;99.90;;;;;;4786851;29;20382;-64
2022/04/24 05:37:40;;;;;;;9.38;7.85;;;7.60;99.90;;;;;;4766024;29;20394;-64
2022/04/24 05:40:06;;;;;;;9.52;8.10;;;7.70;99.90;;;;;;4783123;30;20059;-65
2022/04/24 05:42:33;;;;;;;12.70;8.30;;;7.70;99.90;;;;;;4767684;30;20135;-64
2022/04/24 05:45:04;;;;;;;11.60;8.13;;;7.80;99.90;;;;;;4783749;29;20149;-64
2022/04/24 05:47:30;;;;;;;8.82;7.90;;;7.80;99.90;;;;;;4781079;29;20510;-65
2022/04/24 05:49:55;;;;;;;9.07;8.02;;;8.00;99.90;;;;;;4782980;30;20138;-63
2022/04/24 05:52:21;;;;;;;8.43;7.45;;;8.30;99.90;;;;;;4782256;29;20096;-64
2022/04/24 05:54:47;;;;;;;12.02;8.05;;;8.50;99.90;;;;;;4782013;29;20134;-64
2022/04/24 05:57:12;;;;;;;10.30;7.53;;;8.50;99.90;;;;;;4784552;29;20063;-64
2022/04/24 05:59:38;;;;;;;10.77;8.50;;;8.40;99.90;;;;;;4784592;29;20082;-64
2022/04/24 06:02:03;;;;;;;8.85;8.00;;;8.40;99.90;;;;;;4769498;30;20110;-65
2022/04/24 06:04:29;;;;;;;10.25;7.90;;;8.40;99.90;;;;;;4785784;29;20565;-66
2022/04/24 06:06:55;;;;;;;9.25;8.35;;;8.40;99.90;;;;;;4765281;30;20055;-65
2022/04/24 06:09:20;;;;;;;13.63;7.65;;;8.40;99.90;;;;;;4783064;29;20497;-64
2022/04/24 06:11:46;;;;;;;10.00;7.72;;;8.40;99.90;;;;;;4766333;29;20086;-64
2022/04/24 06:14:13;;;;;;;11.98;7.80;;;8.40;99.90;;;;;;4784443;29;20056;-65
2022/04/24 06:16:38;;;;;;;9.40;8.32;;;8.40;99.90;;;;;;4779137;29;20063;-65
2022/04/24 06:19:04;;;;;;;12.40;7.65;;;8.50;99.90;;;;;;4785739;29;20069;-66
2022/04/24 06:21:29;;;;;;;9.40;8.15;;;8.50;99.90;;;;;;4781762;29;20062;-65
2022/04/24 06:23:55;;;;;;;9.40;8.40;;;8.50;99.90;;;;;;4786775;30;20134;-64
2022/04/24 06:26:21;;;;;;;10.02;8.65;;;8.60;99.90;;;;;;4770879;30;20051;-65
2022/04/24 06:28:46;;;;;;;10.32;8.57;;;8.60;99.90;;;;;;4784498;29;20055;-65
2022/04/24 06:31:12;;;;;;;13.00;8.75;;;8.70;99.90;;;;;;4786755;29;20047;-64
2022/04/24 06:33:37;;;;;;;10.27;8.27;;;8.80;99.90;;;;;;4784982;29;20199;-66
2022/04/24 06:36:03;;;;;;;11.23;8.15;;;8.90;99.90;;;;;;4785370;29;20419;-65
2022/04/24 06:38:29;;;;;;;10.35;7.85;;;9.00;99.90;;;;;;4782816;29;20482;-66
2022/04/24 06:40:54;;;;;;;9.32;8.30;;;9.20;99.90;;;;;;4770437;30;20093;-66
2022/04/24 06:43:20;;;;;;;11.13;8.15;;;9.30;99.90;;;;;;4783554;29;20070;-65
2022/04/24 06:45:45;;;;;;;9.60;8.60;;;9.40;99.90;;;;;;4785259;29;20067;-65
2022/04/24 06:48:16;;;;;;;9.18;7.53;;;9.50;99.90;;;;;;4770572;30;20111;-64
2022/04/24 06:50:43;;;;;;;9.02;7.78;;;9.60;99.90;;;;;;4786924;29;20434;-65
2022/04/24 06:53:11;;;;;;;9.45;8.07;;;9.60;99.90;;;;;;4770479;29;20094;-63
2022/04/24 06:55:39;;;;;;;9.38;7.38;;;9.70;99.90;;;;;;4770511;30;20063;-67
2022/04/24 06:58:06;;;;;;;10.55;7.68;;;9.70;99.90;;;;;;4786605;29;20446;-65
2022/04/24 07:00:33;;;;;;;9.18;7.20;;;9.80;99.90;;;;;;4784377;30;20091;-65
2022/04/24 07:02:59;;;;;;;9.18;7.50;;;9.90;99.90;;;;;;4783913;29;20061;-65
2022/04/24 07:05:27;;;;;;;10.30;7.65;;;10.00;99.90;;;;;;4786870;30;20063;-65
2022/04/24 07:07:53;;;;;;;8.15;7.32;;;10.10;99.90;;;;;;4770057;30;20382;-66
2022/04/24 07:10:22;;;;;;;11.88;7.57;;;10.10;99.90;;;;;;4770432;30;20062;-65
2022/04/24 07:12:49;;;;;;;10.88;7.28;;;10.20;99.90;;;;;;4770423;30;20051;-65
2022/04/24 07:15:17;;;;;;;10.07;6.88;;;10.40;99.90;;;;;;4783629;29;20047;-65
2022/04/24 07:17:43;;;;;;;9.60;6.75;;;10.40;99.90;;;;;;4780683;30;20051;-66
2022/04/24 07:20:18;;;;;;;9.27;7.65;;;10.50;99.90;;;;;;4787294;29;20145;-64
2022/04/24 07:22:45;;;;;;;8.63;7.72;;;10.50;99.90;;;;;;4791843;29;20082;-65
2022/04/24 07:25:12;;;;;;;9.68;6.40;;;10.40;99.90;;;;;;4786812;30;20043;-66
2022/04/24 07:27:39;;;;;;;9.50;6.78;;;10.60;99.90;;;;;;4785909;30;20047;-65
2022/04/24 07:30:05;;;;;;;8.98;6.75;;;10.60;99.90;;;;;;4786016;30;20056;-65
2022/04/24 07:32:41;;;;;;;9.43;6.28;;;10.70;99.90;;;;;;4785493;29;20056;-64
2022/04/24 07:35:12;;;;;;;8.85;5.65;;;10.90;99.90;;;;;;4785932;29;20478;-64
2022/04/24 07:37:38;;;;;;;8.20;5.95;;;11.00;99.90;;;;;;4787031;30;20089;-65
2022/04/24 07:40:06;;;;;;;8.52;6.35;;;11.20;99.90;;;;;;4786318;29;20093;-65
2022/04/24 07:42:42;;;;;;;7.28;5.47;;;11.30;99.90;;;;;;4785390;29;20434;-64
2022/04/24 07:45:08;;;;;;;6.90;5.57;;;11.40;99.90;;;;;;4785831;30;20079;-65
2022/04/24 07:47:34;;;;;;;5.75;5.10;;;11.40;99.90;;;;;;4785401;30;20095;-64
2022/04/24 07:49:59;;;;;;;6.88;5.38;;;11.50;99.90;;;;;;4771395;30;20086;-64
2022/04/24 07:52:25;;;;;;;5.68;4.88;;;11.60;99.90;;;;;;4786937;30;20099;-65
2022/04/24 07:54:51;;;;;;;6.53;5.00;;;11.60;99.90;;;;;;4787423;30;20112;-66
2022/04/24 07:57:17;;;;;;;6.45;4.50;;;11.50;99.90;;;;;;4786849;30;20067;-64
2022/04/24 07:59:43;;;;;;;8.02;4.80;;;11.50;99.90;;;;;;4771612;30;20066;-63
2022/04/24 08:02:10;;;;;;;8.15;4.43;;;11.50;99.90;;;;;;4785208;30;20438;-65
2022/04/24 08:04:36;;;;;;;5.10;4.15;;;11.60;99.90;;;;;;4785646;29;20051;-63
2022/04/24 08:07:02;;;;;;;5.35;4.07;;;11.60;99.90;;;;;;4785507;29;20062;-65
2022/04/24 08:09:28;;;;;;;5.75;4.40;;;11.50;99.90;;;;;;4785969;29;20382;-64
2022/04/24 08:11:54;;;;;;;4.30;3.90;;;11.70;99.90;;;;;;4786020;30;20120;-65
2022/04/24 08:14:19;;;;;;;4.97;4.13;;;11.70;99.90;;;;;;4786090;30;20412;-63
2022/04/24 08:16:45;;;;;;;6.93;3.88;;;11.80;99.90;;;;;;4786343;30;20047;-65
2022/04/24 08:19:11;;;;;;;5.80;4.00;;;12.00;99.90;;;;;;4771275;30;20051;-64
2022/04/24 08:21:37;;;;;;;4.82;3.72;;;12.20;99.90;;;;;;4786715;30;20051;-65
2022/04/24 08:24:02;;;;;;;4.53;3.60;;;12.30;99.90;;;;;;4785621;29;20055;-64
2022/04/24 08:26:28;;;;;;;5.35;3.83;;;12.40;99.90;;;;;;4785328;30;20062;-63
2022/04/24 08:28:54;;;;;;;5.38;3.85;;;12.50;99.90;;;;;;4788293;29;20074;-63
2022/04/24 08:31:19;;;;;;;5.47;3.63;;;12.60;99.90;;;;;;4788542;29;20055;-64
2022/04/24 08:33:45;;;;;;;5.90;3.70;;;12.70;99.90;;;;;;4788876;29;20059;-64
2022/04/24 08:36:10;;;;;;;4.85;3.50;;;12.90;99.90;;;;;;4788841;30;20063;-64
2022/04/24 08:38:36;;;;;;;5.30;2.88;;;13.20;99.90;;;;;;4788720;30;20062;-65
2022/04/24 08:41:01;;;;;;;3.33;2.80;;;13.30;99.90;;;;;;4789937;30;20039;-64
2022/04/24 08:43:27;;;;;;;4.28;2.88;;;13.30;99.90;;;;;;4788836;30;20090;-65
2022/04/24 08:45:54;;;;;;;5.07;2.70;;;13.40;99.90;;;;;;4788619;30;20520;-63
2022/04/24 08:48:20;;;;;;;3.53;2.75;;;13.40;98.40;;;;;;4788391;30;20059;-65
2022/04/24 08:50:46;;;;;;;3.95;2.08;;;13.50;96.50;;;;;;4788715;29;20062;-65
2022/04/24 08:53:14;;;;;;;3.80;2.47;;;13.50;87.40;;;;;;4788564;29;20055;-65
2022/04/24 08:55:39;;;;;;;3.25;2.47;;;13.50;80.30;;;;;;4789992;30;20073;-65
2022/04/24 08:58:05;;;;;;;3.42;2.40;;;13.70;82.40;;;;;;4789784;30;20055;-64
2022/04/24 09:00:33;;;;;;;3.83;2.35;;;13.80;79.00;;;;;;4788080;29;20069;-64
2022/04/24 09:03:00;;;;;;;3.45;2.70;;;13.90;80.40;;;;;;4789558;30;20135;-64
2022/04/24 09:05:26;;;;;;;3.13;2.33;;;14.10;76.80;;;;;;4788057;29;20059;-65
2022/04/24 09:07:53;;;;;;;3.95;2.55;;;14.20;75.40;;;;;;4803040;29;20079;-66
2022/04/24 09:10:19;;;;;;;3.75;2.45;;;14.40;74.10;;;;;;4788240;29;20055;-66
2022/04/24 09:12:53;;;;;;;4.93;2.60;;;14.50;73.80;;;;;;4789482;29;20051;-66
2022/04/24 09:15:18;;;;;;;4.72;2.63;;;14.60;70.30;;;;;;4788039;29;20051;-64
2022/04/24 09:17:44;;;;;;;5.00;2.80;;;14.60;72.10;;;;;;4789166;30;20135;-64
2022/04/24 09:20:18;;;;;;;4.00;2.60;;;14.80;73.00;;;;;;4788522;29;20051;-65
2022/04/24 09:22:45;;;;;;;4.10;2.97;;;14.90;70.60;;;;;;4789346;30;20093;-65
2022/04/24 09:25:12;;;;;;;4.13;3.03;;;14.80;70.70;;;;;;4787928;30;20059;-66
2022/04/24 09:27:38;;;;;;;3.28;2.72;;;14.80;69.90;;;;;;4789357;30;20051;-65
2022/04/24 09:30:13;;;;;;;3.28;2.90;;;14.70;70.20;;;;;;4789414;30;20051;-64
2022/04/24 09:32:50;;;;;;;3.50;3.00;;;14.70;68.90;;;;;;4788626;30;20051;-65
2022/04/24 09:35:33;;;;;;;7.18;2.85;;;14.70;68.00;;;;;;4788324;30;20407;-65
2022/04/24 09:38:17;;;;;;;4.82;2.80;;;14.80;66.50;;;;;;4789227;30;20094;-64
2022/04/24 09:40:47;;;;;;;4.68;2.88;;;14.70;65.80;;;;;;4786797;29;20104;-64
2022/04/24 09:43:14;;;;;;;3.22;2.92;;;14.70;66.60;;;;;;4788893;30;20074;-64
2022/04/24 09:45:41;;;;;;;3.88;3.15;;;14.80;66.80;;;;;;4787445;29;20067;-66
2022/04/24 09:48:18;;;;;;;3.20;2.90;;;14.90;66.70;;;;;;4787919;29;20071;-66
2022/04/24 09:50:44;;;;;;;4.50;3.00;;;14.90;65.70;;;;;;4789179;30;20374;-64
2022/04/24 09:53:15;;;;;;;3.25;2.83;;;15.00;65.90;;;;;;4788937;30;20063;-66
2022/04/24 09:55:43;;;;;;;4.53;3.05;;;15.00;64.10;;;;;;4788744;30;20059;-65
2022/04/24 09:58:09;;;;;;;3.72;3.10;;;15.10;64.40;;;;;;4788952;30;20141;-65
2022/04/24 10:00:36;;;;;;;3.28;2.80;;;15.20;64.80;;;;;;4788088;30;20059;-65
2022/04/24 10:03:04;;;;;;;3.40;3.10;;;15.30;64.50;;;;;;4788993;30;20067;-66
2022/04/24 10:05:31;;;;;;;6.05;3.08;;;15.50;64.50;;;;;;4788784;30;20099;-65
2022/04/24 10:07:58;;;;;;;5.25;3.20;;;15.50;63.00;;;;;;4788711;30;20059;-65
2022/04/24 10:10:24;;;;;;;4.32;3.92;;;15.70;63.10;;;;;;4788697;29;20063;-65
2022/04/24 10:12:51;;;;;;;4.60;3.10;;;15.60;62.50;;;;;;4788349;30;20055;-66
2022/04/24 10:15:20;;;;;;;5.57;2.92;;;15.60;62.00;;;;;;4788478;30;20055;-65
2022/04/24 10:17:51;;;;;;;3.38;3.08;;;15.60;61.30;;;;;;4786817;29;20108;-66
2022/04/24 10:20:50;;;;;;;3.53;3.10;;;15.60;59.80;;;;;;4788741;30;20062;-65
2022/04/24 10:23:27;;;;;;;7.50;3.42;;;15.60;59.30;;;;;;4788467;30;20086;-65
2022/04/24 10:25:53;;;;;;;3.70;2.60;;;15.70;61.40;;;;;;4788283;30;20531;-66
2022/04/24 10:28:20;;;;;;;4.20;2.70;;;15.70;61.80;;;;;;4788435;30;20098;-65
2022/04/24 10:31:05;;;;;;;3.05;2.58;;;15.90;61.70;;;;;;4787748;30;20180;-65
2022/04/24 10:33:35;;;;;;;3.10;2.17;;;16.00;58.50;;;;;;4788834;30;20110;-64
2022/04/24 10:36:11;;;;;;;2.92;2.63;;;16.00;60.20;;;;;;4788106;30;20059;-65
2022/04/24 10:38:51;;;;;;;4.68;2.47;;;16.00;59.30;;;;;;4788223;30;20519;-66
2022/04/24 10:41:23;;;;;;;3.53;2.60;;;15.90;59.60;;;;;;4788011;30;20055;-66
2022/04/24 10:43:57;;;;;;;4.78;2.60;;;16.00;60.00;;;;;;4787120;30;20055;-65
2022/04/24 10:46:26;;;;;;;3.50;2.60;;;16.10;59.70;;;;;;4787352;30;20048;-66
2022/04/24 10:48:53;;;;;;;2.90;2.20;;;16.10;59.70;;;;;;4786893;30;20059;-65
2022/04/24 10:51:29;;;;;;;6.43;2.50;;;16.20;59.50;;;;;;4787573;29;20055;-65
2022/04/24 10:53:58;;;;;;;2.90;2.20;;;16.30;57.30;;;;;;4786080;30;20067;-65
2022/04/24 10:56:25;;;;;;;6.93;2.33;;;16.40;58.00;;;;;;4786650;29;20127;-65
2022/04/24 10:58:51;;;;;;;3.28;2.25;;;16.40;57.70;;;;;;4787669;29;20140;-66
2022/04/24 11:01:17;;;;;;;3.03;2.00;;;16.50;57.70;;;;;;4785854;30;20528;-65
2022/04/24 11:03:45;;;;;;;5.30;2.17;;;16.50;57.00;;;;;;4788553;30;20059;-66
2022/04/24 11:06:18;;;;;;;3.10;2.22;;;16.60;56.30;;;;;;4787579;30;20059;-66
2022/04/24 11:08:44;;;;;;;3.53;2.30;;;16.70;55.70;;;;;;4786745;29;20063;-66
2022/04/24 11:11:13;;;;;;;3.55;2.50;;;16.90;56.30;;;;;;4786593;30;20143;-66
2022/04/24 11:13:39;;;;;;;4.28;2.30;;;16.90;56.30;;;;;;4786652;29;20114;-66
2022/04/24 11:16:06;;;;;;;2.40;2.10;;;16.80;56.20;;;;;;4787903;30;20063;-66
2022/04/24 11:18:32;;;;;;;5.35;2.63;;;16.60;56.10;;;;;;4787121;30;20135;-65
2022/04/24 11:21:03;;;;;;;3.17;2.35;;;16.50;56.00;;;;;;4787633;30;20493;-65
2022/04/24 11:23:37;;;;;;;2.85;2.22;;;16.40;55.10;;;;;;4786776;30;20047;-65
2022/04/24 11:26:09;;;;;;;3.15;2.60;;;16.40;53.50;;;;;;4786366;30;20381;-66
2022/04/24 11:28:49;;;;;;;3.85;2.78;;;16.50;54.30;;;;;;4786340;30;20542;-68
2022/04/24 11:31:20;;;;;;;2.60;2.40;;;16.60;55.00;;;;;;4786528;30;20053;-65
2022/04/24 11:33:53;;;;;;;5.88;2.40;;;16.40;55.80;;;;;;4787776;30;20112;-64
2022/04/24 11:36:19;;;;;;;3.40;2.38;;;16.30;56.50;;;;;;4785974;30;20556;-65
2022/04/24 11:38:50;;;;;;;4.45;2.65;;;16.30;56.50;;;;;;4787029;30;20074;-65
2022/04/24 11:41:15;;;;;;;3.50;2.40;;;16.40;56.80;;;;;;4787155;30;20098;-66
2022/04/24 11:43:41;;;;;;;2.40;2.20;;;16.60;56.80;;;;;;4788131;30;20079;-66
2022/04/24 11:50:13;;;;;;;2.97;2.55;;;16.70;56.60;;;;;;4786589;30;20051;-65
2022/04/24 11:51:49;;;;;;;2.42;2.00;;;16.50;56.80;;;;;;4785919;30;20146;-66
2022/04/24 11:54:16;;;;;;;2.47;2.20;;;16.60;56.50;;;;;;4787583;30;20043;-65
2022/04/24 11:56:42;;;;;;;4.38;2.10;;;16.50;56.50;;;;;;4787121;30;20132;-66
2022/04/24 11:59:14;;;;;;;2.72;2.00;;;16.40;56.00;;;;;;4787963;30;20093;-65
2022/04/24 12:01:40;;;;;;;3.47;2.17;;;16.50;55.90;;;;;;4786572;30;20410;-65
2022/04/24 12:04:05;;;;;;;2.33;2.13;;;16.40;55.20;;;;;;4788014;29;20047;-66
2022/04/24 12:06:32;;;;;;;3.60;2.05;;;16.30;54.80;;;;;;4790344;30;20124;-65
2022/04/24 12:09:06;;;;;;;2.67;2.35;;;16.50;55.20;;;;;;4789656;30;20051;-66
2022/04/24 12:11:33;;;;;;;2.22;1.90;;;16.60;54.80;;;;;;4790141;30;20067;-66
2022/04/24 12:14:08;;;;;;;3.13;2.50;;;16.60;55.00;;;;;;4789494;29;20493;-65
2022/04/24 12:16:35;;;;;;;2.42;2.05;;;16.50;55.70;;;;;;4788630;29;20069;-65
2022/04/24 12:19:01;;;;;;;6.22;2.80;;;16.20;56.10;;;;;;4790588;30;20493;-65
2022/04/24 12:21:28;;;;;;;3.30;2.47;;;16.10;56.50;;;;;;4790068;30;20066;-65
2022/04/24 12:23:55;;;;;;;3.88;2.50;;;16.20;56.90;;;;;;4790581;30;20091;-65
2022/04/24 12:26:21;;;;;;;2.53;2.30;;;16.30;57.10;;;;;;4788840;29;20505;-65
2022/04/24 12:29:15;;;;;;;3.92;2.88;;;16.40;56.90;;;;;;4789639;29;20059;-66
2022/04/24 12:31:46;;;;;;;3.03;2.55;;;16.30;56.50;;;;;;4788693;30;20054;-64
2022/04/24 12:34:12;;;;;;;4.60;2.35;;;16.30;57.10;;;;;;4789985;30;20051;-65
2022/04/24 12:36:48;;;;;;;5.57;2.72;;;16.40;56.80;;;;;;4790011;30;20059;-65
2022/04/24 12:39:14;;;;;;;4.28;2.20;;;16.40;56.00;;;;;;4789227;30;20059;-65
2022/04/24 12:41:40;;;;;;;5.05;2.25;;;16.50;56.40;;;;;;4788873;29;20055;-64
2022/04/24 12:44:07;;;;;;;3.78;2.45;;;16.80;56.30;;;;;;4790406;30;20208;-65
2022/04/24 12:46:33;;;;;;;3.80;2.20;;;16.90;56.30;;;;;;4788047;30;20533;-64
2022/04/24 12:49:00;;;;;;;4.13;2.40;;;17.00;56.10;;;;;;4789187;30;20055;-65
2022/04/24 12:51:26;;;;;;;2.50;2.30;;;16.90;55.70;;;;;;4788558;30;20066;-65
2022/04/24 12:53:59;;;;;;;2.72;2.10;;;16.70;55.50;;;;;;4789692;30;20374;-64